CheckWX is a tool to help pilots better visualize weather data.  It is not intended as a substitute for an official pre-flight weather briefing.

04:51:28 UTC

KLAF TAF
Purdue University Airport
Lafayette, Indiana, USA
KLAF 180215Z 1802/1824 35005KT P6SM SCT015 OVC080 TEMPO 1802/1806 4SM BR BKN015 FM180600 VRB04KT P6SM BKN022 FM181200 VRB04KT P6SM BKN008 FM181700 VRB03KT P6SM BKN025 FM181800 VRB03KT P6SM SCT028 AMD LTD TO CLD VIS AND WIND TIL 181300

Jun-18@
02:00 UTC

Jun-18 @ 02:00 UTC

Jun-18@
06:00 UTC

Jun-18 @ 06:00 UTC

KLAF 180215Z 1802/1824 35005KT P6SM SCT015 OVC080
Wind
  • 350° at 5 KTS
Cloud Levels
  • Scattered at 1,500' AGL
  • Overcast at 8,000' AGL

Jun-18@
02:00 UTC

Jun-18 @ 02:00 UTC

Jun-18@
06:00 UTC

Jun-18 @ 06:00 UTC

TEMPO 1802/1806 4SM BR BKN015

Temporary

Temporary Changes expected for less than half the time period

Conditions
Mist
Cloud Levels
  • Broken at 1,500' AGL

Jun-18@
06:00 UTC

Jun-18 @ 06:00 UTC

Jun-18@
12:00 UTC

Jun-18 @ 12:00 UTC

FM180600 VRB04KT P6SM BKN022

From

From Standard forecast or significant change

Wind
  • Variable at 4 KTS
Cloud Levels
  • Broken at 2,200' AGL

Jun-18@
12:00 UTC

Jun-18 @ 12:00 UTC

Jun-18@
17:00 UTC

Jun-18 @ 17:00 UTC

FM181200 VRB04KT P6SM BKN008

From

From Standard forecast or significant change

Wind
  • Variable at 4 KTS
Cloud Levels
  • Broken at 800' AGL

Jun-18@
17:00 UTC

Jun-18 @ 17:00 UTC

Jun-18@
18:00 UTC

Jun-18 @ 18:00 UTC

FM181700 VRB03KT P6SM BKN025

From

From Standard forecast or significant change

Wind
  • Variable at 3 KTS
Cloud Levels
  • Broken at 2,500' AGL

Jun-18@
18:00 UTC

Jun-18 @ 18:00 UTC

Jun-19@
00:00 UTC

Jun-19 @ 00:00 UTC

FM181800 VRB03KT P6SM SCT028 AMD LTD TO CLD VIS AND WIND TIL 181300

From

From Standard forecast or significant change

Wind
  • Variable at 3 KTS
Cloud Levels
  • Scattered at 2,800' AGL